Time;durP1;ratioP1;P1;durP2;ratioP2;P2;SDS_P1;SDS_P2;PMS_P1;PMS_P2;Temp;Humidity;BMP_temperature;BMP_pressure;BME280_temperature;BME280_humidity;BME280_pressure;Samples;Min_cycle;Max_cycle;Signal;HPM_P1;HPM_P2
2022/01/23 00:01:12;;;;;;;12.40;7.07;;;;;;;;;;4922554;29;20024;-85
2022/01/23 00:03:44;;;;;;;15.88;8.18;;;;;;;;;;4927512;29;20039;-85
2022/01/23 00:06:10;;;;;;;13.55;7.53;;;;;;;;;;4930461;29;20062;-85
2022/01/23 00:08:36;;;;;;;12.07;7.50;;;;;;;;;;4938477;29;20105;-84
2022/01/23 00:11:01;;;;;;;19.30;7.90;;;;;;;;;;4939206;29;20359;-85
2022/01/23 00:13:34;;;;;;;12.75;7.70;;;;;;;;;;4939126;29;20031;-85
2022/01/23 00:18:44;;;;;;;18.00;7.50;;;;;;;;;;4933582;29;20042;-85
2022/01/23 00:21:09;;;;;;;14.07;7.28;;;;;;;;;;4937777;29;20024;-85
2022/01/23 00:31:34;;;;;;;11.93;7.70;;;;;;;;;;4955099;29;20513;-85
2022/01/23 00:33:59;;;;;;;12.45;7.07;;;;;;;;;;4940407;29;20038;-85
2022/01/23 00:36:26;;;;;;;12.35;7.30;;;;;;;;;;4929218;29;20103;-86
2022/01/23 00:38:52;;;;;;;16.08;8.82;;;;;;;;;;4938230;29;20031;-85
2022/01/23 00:41:18;;;;;;;12.70;7.28;;;;;;;;;;4945201;29;20034;-84
2022/01/23 00:43:46;;;;;;;13.18;7.00;;;;;;;;;;4939891;29;20438;-85
2022/01/23 00:51:34;;;;;;;17.23;7.85;;;;;;;;;;4937031;29;20031;-85
2022/01/23 00:54:01;;;;;;;12.57;7.63;;;;;;;;;;4938018;29;20052;-85
2022/01/23 00:56:26;;;;;;;13.35;7.57;;;;;;;;;;4925228;29;20116;-85
2022/01/23 00:58:52;;;;;;;10.65;7.07;;;;;;;;;;4933836;29;20076;-85
2022/01/23 01:01:19;;;;;;;12.48;7.38;;;;;;;;;;4925780;29;20052;-85
2022/01/23 01:03:45;;;;;;;13.70;7.60;;;;;;;;;;4930581;29;20032;-85
2022/01/23 01:06:10;;;;;;;12.77;7.50;;;;;;;;;;4939416;29;20112;-84
2022/01/23 01:08:40;;;;;;;13.15;8.00;;;;;;;;;;4934198;29;20486;-85
2022/01/23 01:30:24;;;;;;;15.70;8.43;;;;;;;;;;4938809;29;20030;-86
2022/01/23 01:33:10;;;;;;;16.92;8.25;;;;;;;;;;4940132;29;20032;-85
2022/01/23 01:36:01;;;;;;;15.30;8.00;;;;;;;;;;4934202;29;20051;-86
2022/01/23 01:38:21;;;;;;;12.45;8.07;;;;;;;;;;4929643;29;20067;-88
2022/01/23 01:40:47;;;;;;;13.15;7.90;;;;;;;;;;4938280;29;20087;-84
2022/01/23 01:43:12;;;;;;;12.88;8.23;;;;;;;;;;4927890;29;20386;-84
2022/01/23 01:45:40;;;;;;;16.33;8.65;;;;;;;;;;4939197;29;20028;-86
2022/01/23 01:48:06;;;;;;;19.30;9.48;;;;;;;;;;4936547;29;20124;-85
2022/01/23 01:50:33;;;;;;;19.02;10.93;;;;;;;;;;4942515;29;20047;-86
2022/01/23 01:52:59;;;;;;;18.15;10.35;;;;;;;;;;4943425;29;20406;-85
2022/01/23 01:55:35;;;;;;;19.05;10.27;;;;;;;;;;4939357;29;20386;-86
2022/01/23 01:58:02;;;;;;;19.83;10.90;;;;;;;;;;4941085;29;20027;-85
2022/01/23 02:10:54;;;;;;;20.95;11.35;;;;;;;;;;4943846;29;20039;-85
2022/01/23 02:13:33;;;;;;;20.13;11.20;;;;;;;;;;4944302;29;20063;-86
2022/01/23 02:16:19;;;;;;;19.25;10.23;;;;;;;;;;4939234;29;20410;-85
2022/01/23 02:54:22;;;;;;;20.27;11.80;;;;;;;;;;4958995;29;20047;-85
2022/01/23 02:56:52;;;;;;;22.83;12.32;;;;;;;;;;4941838;29;20459;-84
2022/01/23 02:59:25;;;;;;;21.58;11.68;;;;;;;;;;4933065;29;20403;-84
2022/01/23 03:04:33;;;;;;;18.33;10.65;;;;;;;;;;4940852;29;20031;-84
2022/01/23 03:25:44;;;;;;;20.63;10.98;;;;;;;;;;4940915;29;20160;-85
2022/01/23 03:28:26;;;;;;;19.27;10.48;;;;;;;;;;4940283;29;20039;-84
2022/01/23 03:31:07;;;;;;;22.85;12.13;;;;;;;;;;4928094;29;20048;-84
2022/01/23 03:33:35;;;;;;;19.88;11.05;;;;;;;;;;4921158;29;20027;-84
2022/01/23 03:36:01;;;;;;;19.10;10.93;;;;;;;;;;4943330;29;20036;-85
2022/01/23 03:38:26;;;;;;;21.25;10.93;;;;;;;;;;4942486;29;20039;-85
2022/01/23 03:40:52;;;;;;;23.30;11.95;;;;;;;;;;4942042;29;20099;-84
2022/01/23 03:43:26;;;;;;;20.90;10.95;;;;;;;;;;4939359;29;20052;-85
2022/01/23 03:46:08;;;;;;;22.33;11.02;;;;;;;;;;4941965;29;20027;-84
2022/01/23 03:50:59;;;;;;;21.95;10.98;;;;;;;;;;4939988;29;20024;-84
2022/01/23 03:53:24;;;;;;;24.98;12.55;;;;;;;;;;4941945;29;20023;-84
2022/01/23 03:55:51;;;;;;;22.77;12.30;;;;;;;;;;4942338;29;20034;-85
2022/01/23 03:58:16;;;;;;;25.98;12.20;;;;;;;;;;4924213;29;20031;-84
2022/01/23 04:00:42;;;;;;;22.48;12.32;;;;;;;;;;4941067;29;20038;-85
2022/01/23 04:03:07;;;;;;;24.77;12.35;;;;;;;;;;4941218;29;20105;-84
2022/01/23 04:05:33;;;;;;;24.35;12.25;;;;;;;;;;4943027;29;20030;-85
2022/01/23 04:07:58;;;;;;;24.65;13.65;;;;;;;;;;4930627;29;20023;-85
2022/01/23 04:10:24;;;;;;;26.98;12.77;;;;;;;;;;4938533;29;20031;-85
2022/01/23 05:01:16;;;;;;;22.40;12.95;;;;;;;;;;4939878;29;20038;-84
2022/01/23 05:06:29;;;;;;;24.38;12.95;;;;;;;;;;4941663;29;20114;-84
2022/01/23 05:08:55;;;;;;;22.58;12.18;;;;;;;;;;4939199;29;20080;-84
2022/01/23 05:11:20;;;;;;;24.33;12.85;;;;;;;;;;4939513;29;20035;-85
2022/01/23 05:13:46;;;;;;;23.73;13.63;;;;;;;;;;4940151;29;20062;-84
2022/01/23 05:16:12;;;;;;;26.95;13.98;;;;;;;;;;4932444;29;20431;-84
2022/01/23 05:18:39;;;;;;;27.02;13.77;;;;;;;;;;4939183;29;20079;-85
2022/01/23 05:23:50;;;;;;;23.48;12.88;;;;;;;;;;4940888;29;20046;-84
2022/01/23 05:26:15;;;;;;;23.33;13.35;;;;;;;;;;4942998;29;20055;-84
2022/01/23 05:28:41;;;;;;;25.02;13.43;;;;;;;;;;4942431;29;20035;-85
2022/01/23 05:31:06;;;;;;;22.92;12.85;;;;;;;;;;4936029;29;20024;-85
2022/01/23 05:33:34;;;;;;;21.35;12.45;;;;;;;;;;4936129;29;20039;-84
2022/01/23 05:36:00;;;;;;;22.50;13.30;;;;;;;;;;4948087;29;20023;-83
2022/01/23 05:38:25;;;;;;;26.67;13.27;;;;;;;;;;4935050;29;20027;-86
2022/01/23 05:40:56;;;;;;;24.45;13.15;;;;;;;;;;4933653;29;20032;-85
2022/01/23 05:43:22;;;;;;;26.13;13.48;;;;;;;;;;4942030;29;20019;-85
2022/01/23 05:45:48;;;;;;;23.95;13.18;;;;;;;;;;4943560;29;20035;-85
2022/01/23 05:48:13;;;;;;;24.20;13.25;;;;;;;;;;4948245;29;20562;-86
2022/01/23 05:50:38;;;;;;;26.10;14.13;;;;;;;;;;4936391;29;20028;-84
2022/01/23 05:53:04;;;;;;;27.77;14.63;;;;;;;;;;4939491;29;20509;-84
2022/01/23 05:55:30;;;;;;;27.25;13.50;;;;;;;;;;4941656;29;20375;-84
2022/01/23 05:57:55;;;;;;;23.50;12.82;;;;;;;;;;4944013;29;20034;-83
2022/01/23 06:00:20;;;;;;;26.00;14.32;;;;;;;;;;4945042;29;20028;-85
2022/01/23 06:02:46;;;;;;;26.02;12.25;;;;;;;;;;4942602;29;20028;-85
2022/01/23 06:05:11;;;;;;;29.20;12.88;;;;;;;;;;4940597;29;20039;-85
2022/01/23 06:07:37;;;;;;;23.83;12.95;;;;;;;;;;4937385;29;20123;-86
2022/01/23 06:10:04;;;;;;;21.92;12.02;;;;;;;;;;4942109;29;20024;-84
2022/01/23 06:12:29;;;;;;;23.42;12.02;;;;;;;;;;4942161;29;20028;-86
2022/01/23 06:14:54;;;;;;;25.38;12.57;;;;;;;;;;4942281;29;20023;-87
2022/01/23 06:17:20;;;;;;;25.60;12.48;;;;;;;;;;4938841;29;20036;-84
2022/01/23 06:19:45;;;;;;;24.55;12.38;;;;;;;;;;4942221;29;20167;-87
2022/01/23 06:22:11;;;;;;;24.90;12.45;;;;;;;;;;4958157;29;20023;-85
2022/01/23 06:24:44;;;;;;;24.85;12.90;;;;;;;;;;4941567;29;20160;-85
2022/01/23 06:27:10;;;;;;;21.33;11.88;;;;;;;;;;4942183;29;20046;-85
2022/01/23 06:29:35;;;;;;;22.60;11.93;;;;;;;;;;4940220;29;20083;-84
2022/01/23 06:32:02;;;;;;;26.50;12.32;;;;;;;;;;4942202;29;20391;-86
2022/01/23 06:34:29;;;;;;;29.27;13.35;;;;;;;;;;4942356;29;20024;-84
2022/01/23 06:36:55;;;;;;;23.92;12.57;;;;;;;;;;4929492;29;20529;-85
2022/01/23 06:39:21;;;;;;;25.42;13.27;;;;;;;;;;4940426;29;20028;-86
2022/01/23 06:41:47;;;;;;;25.35;12.98;;;;;;;;;;4941643;29;20043;-85
2022/01/23 06:44:12;;;;;;;23.75;13.20;;;;;;;;;;4941755;29;20031;-85
2022/01/23 06:46:39;;;;;;;24.52;11.80;;;;;;;;;;4941554;29;20031;-85
2022/01/23 06:49:05;;;;;;;24.42;12.73;;;;;;;;;;4940507;29;20501;-86
2022/01/23 06:51:32;;;;;;;26.88;13.65;;;;;;;;;;4925746;29;20086;-85
2022/01/23 06:53:57;;;;;;;25.80;13.15;;;;;;;;;;4942672;29;20024;-85
2022/01/23 06:56:23;;;;;;;26.02;14.15;;;;;;;;;;4940561;29;20019;-87
2022/01/23 06:58:48;;;;;;;30.38;13.40;;;;;;;;;;4940451;29;20677;-86
2022/01/23 07:01:15;;;;;;;23.42;13.07;;;;;;;;;;4935438;29;20530;-84
2022/01/23 07:03:40;;;;;;;23.45;12.95;;;;;;;;;;4941790;29;20050;-87
2022/01/23 07:06:06;;;;;;;25.13;12.38;;;;;;;;;;4941273;29;20027;-86
2022/01/23 07:08:32;;;;;;;26.77;12.90;;;;;;;;;;4936093;29;20031;-85
2022/01/23 07:10:57;;;;;;;25.13;13.40;;;;;;;;;;4938608;29;20031;-85
2022/01/23 07:13:23;;;;;;;23.42;12.63;;;;;;;;;;4938107;29;20283;-85
2022/01/23 07:15:49;;;;;;;29.77;13.18;;;;;;;;;;4934297;29;20035;-85
2022/01/23 07:18:21;;;;;;;25.05;12.63;;;;;;;;;;4936810;29;20105;-84
2022/01/23 07:20:47;;;;;;;26.83;13.68;;;;;;;;;;4938239;29;20032;-84
2022/01/23 07:23:13;;;;;;;25.98;13.32;;;;;;;;;;4929631;29;20032;-83
2022/01/23 07:25:41;;;;;;;26.80;13.55;;;;;;;;;;4938289;29;20111;-84
2022/01/23 07:28:11;;;;;;;28.00;14.13;;;;;;;;;;4919822;29;20030;-83
2022/01/23 07:30:43;;;;;;;22.30;13.23;;;;;;;;;;4937795;29;20058;-83
2022/01/23 07:33:08;;;;;;;24.05;12.18;;;;;;;;;;4937602;29;20834;-82
2022/01/23 07:35:34;;;;;;;26.40;12.95;;;;;;;;;;4931600;29;20118;-84
2022/01/23 07:37:59;;;;;;;25.25;13.68;;;;;;;;;;4936087;29;20442;-83
2022/01/23 07:40:25;;;;;;;28.17;13.57;;;;;;;;;;4942060;29;20023;-83
2022/01/23 07:42:51;;;;;;;23.75;12.70;;;;;;;;;;4939508;29;20479;-83
2022/01/23 07:45:16;;;;;;;26.63;13.70;;;;;;;;;;4937057;29;20151;-84
2022/01/23 07:47:42;;;;;;;26.85;11.75;;;;;;;;;;4949816;28;20471;-82
2022/01/23 07:50:08;;;;;;;28.27;12.63;;;;;;;;;;4944715;29;20048;-81
2022/01/23 07:52:36;;;;;;;23.75;12.90;;;;;;;;;;4957668;28;20040;-85
2022/01/23 07:55:08;;;;;;;25.67;12.25;;;;;;;;;;4941427;29;20115;-86
2022/01/23 07:57:34;;;;;;;23.58;12.30;;;;;;;;;;4922504;29;20027;-86
2022/01/23 08:00:00;;;;;;;28.90;12.88;;;;;;;;;;4939525;29;20510;-84
2022/01/23 08:02:26;;;;;;;22.52;12.32;;;;;;;;;;4928661;29;20054;-86
2022/01/23 08:04:51;;;;;;;23.98;11.68;;;;;;;;;;4938314;29;20034;-85
2022/01/23 08:07:38;;;;;;;24.63;12.57;;;;;;;;;;4943219;29;20028;-83
2022/01/23 08:10:05;;;;;;;23.48;12.35;;;;;;;;;;4945337;29;20059;-84
2022/01/23 08:12:31;;;;;;;25.67;12.57;;;;;;;;;;4946024;29;20019;-85
2022/01/23 08:14:59;;;;;;;24.55;12.60;;;;;;;;;;4943790;29;20024;-85
2022/01/23 08:17:25;;;;;;;28.63;13.32;;;;;;;;;;4944072;29;20023;-83
2022/01/23 08:19:59;;;;;;;24.80;12.88;;;;;;;;;;4940646;29;20111;-86
2022/01/23 08:22:27;;;;;;;24.58;13.60;;;;;;;;;;4918686;29;20031;-86
2022/01/23 08:24:54;;;;;;;25.25;13.13;;;;;;;;;;4934349;29;20040;-85
2022/01/23 08:27:21;;;;;;;27.67;14.15;;;;;;;;;;4941470;29;20078;-85
2022/01/23 08:29:47;;;;;;;31.60;15.48;;;;;;;;;;4935619;29;20506;-86
2022/01/23 08:32:13;;;;;;;29.98;13.98;;;;;;;;;;4942861;29;20167;-84
2022/01/23 08:34:39;;;;;;;27.02;14.80;;;;;;;;;;4930185;29;20055;-87
2022/01/23 08:37:06;;;;;;;27.83;15.00;;;;;;;;;;4935092;29;20128;-86
2022/01/23 08:39:35;;;;;;;30.63;14.82;;;;;;;;;;4919468;29;20032;-87
2022/01/23 08:42:20;;;;;;;29.25;15.00;;;;;;;;;;4941253;29;20031;-85
2022/01/23 08:44:47;;;;;;;31.52;15.15;;;;;;;;;;4925320;29;20032;-85
2022/01/23 08:47:13;;;;;;;27.10;14.25;;;;;;;;;;4941976;29;20047;-83
2022/01/23 08:49:45;;;;;;;28.42;15.18;;;;;;;;;;4940321;29;20028;-85
2022/01/23 08:52:12;;;;;;;23.85;14.05;;;;;;;;;;4940856;29;20028;-85
2022/01/23 08:54:38;;;;;;;30.63;15.38;;;;;;;;;;4941819;29;20086;-87
2022/01/23 08:57:04;;;;;;;31.65;15.90;;;;;;;;;;4919021;29;20059;-87
2022/01/23 08:59:29;;;;;;;28.70;15.82;;;;;;;;;;4937355;29;20039;-83
2022/01/23 09:01:54;;;;;;;28.13;16.10;;;;;;;;;;4932396;29;20274;-85
2022/01/23 09:04:20;;;;;;;31.25;15.38;;;;;;;;;;4942396;29;20026;-84
2022/01/23 09:06:46;;;;;;;30.30;15.05;;;;;;;;;;4941710;29;20031;-85
2022/01/23 09:09:19;;;;;;;31.15;14.82;;;;;;;;;;4924379;29;20044;-84
2022/01/23 09:14:26;;;;;;;31.10;16.05;;;;;;;;;;4938721;29;20024;-85
2022/01/23 09:16:53;;;;;;;29.38;14.80;;;;;;;;;;4940514;29;20438;-85
2022/01/23 09:19:21;;;;;;;28.08;14.73;;;;;;;;;;4924177;29;20060;-87
2022/01/23 09:21:49;;;;;;;25.63;14.13;;;;;;;;;;4942533;29;20035;-86
2022/01/23 09:24:16;;;;;;;24.48;15.02;;;;;;;;;;4943863;29;20051;-86
2022/01/23 09:26:42;;;;;;;24.00;13.68;;;;;;;;;;4925756;29;20097;-87
2022/01/23 09:29:14;;;;;;;25.27;14.80;;;;;;;;;;4942275;29;20032;-87
2022/01/23 09:31:50;;;;;;;29.70;15.90;;;;;;;;;;4929702;29;20032;-87
2022/01/23 09:34:21;;;;;;;30.38;15.85;;;;;;;;;;4922778;29;20091;-86
2022/01/23 09:36:47;;;;;;;30.10;16.30;;;;;;;;;;4944396;29;20032;-88
2022/01/23 09:39:15;;;;;;;32.28;15.95;;;;;;;;;;4935535;29;20265;-86
2022/01/23 09:41:46;;;;;;;29.75;15.82;;;;;;;;;;4939953;29;20020;-86
2022/01/23 09:44:14;;;;;;;24.60;14.50;;;;;;;;;;4933405;29;20023;-84
2022/01/23 09:46:42;;;;;;;28.40;15.50;;;;;;;;;;4943400;29;20083;-87
2022/01/23 09:49:08;;;;;;;29.65;16.08;;;;;;;;;;4942855;29;20035;-86
2022/01/23 09:51:36;;;;;;;27.65;15.65;;;;;;;;;;4944728;29;20028;-84
2022/01/23 09:54:02;;;;;;;28.08;15.13;;;;;;;;;;4943436;29;20170;-87
2022/01/23 09:56:30;;;;;;;30.20;15.90;;;;;;;;;;4944940;29;20015;-85
2022/01/23 09:58:57;;;;;;;29.45;15.60;;;;;;;;;;4941289;29;20031;-85
2022/01/23 10:01:23;;;;;;;23.75;13.55;;;;;;;;;;4942894;29;20031;-87
2022/01/23 10:03:49;;;;;;;28.95;14.48;;;;;;;;;;4935556;29;20028;-86
2022/01/23 10:06:16;;;;;;;28.88;15.18;;;;;;;;;;4942986;29;20080;-85
2022/01/23 10:08:42;;;;;;;28.60;15.77;;;;;;;;;;4941885;29;20043;-83
2022/01/23 10:11:11;;;;;;;31.08;15.32;;;;;;;;;;4920318;29;20038;-84
2022/01/23 10:13:36;;;;;;;25.05;13.98;;;;;;;;;;4950571;29;20023;-87
2022/01/23 10:16:02;;;;;;;29.58;15.48;;;;;;;;;;4948017;29;20045;-85
2022/01/23 10:18:28;;;;;;;23.55;13.00;;;;;;;;;;4950915;29;20063;-82
2022/01/23 10:20:54;;;;;;;25.08;12.95;;;;;;;;;;4956585;29;20079;-87
2022/01/23 10:23:19;;;;;;;22.40;13.30;;;;;;;;;;4949244;29;20021;-85
2022/01/23 10:25:47;;;;;;;25.17;13.95;;;;;;;;;;4947016;29;20384;-85
2022/01/23 10:28:20;;;;;;;22.15;13.43;;;;;;;;;;4947046;29;20023;-84
2022/01/23 10:30:52;;;;;;;28.25;13.85;;;;;;;;;;4940348;29;20028;-85
2022/01/23 10:33:21;;;;;;;26.05;14.80;;;;;;;;;;4930546;29;20032;-85
2022/01/23 10:36:08;;;;;;;31.38;15.07;;;;;;;;;;4927486;29;20398;-84
2022/01/23 10:38:40;;;;;;;34.13;14.98;;;;;;;;;;4939586;29;20055;-84
2022/01/23 10:41:28;;;;;;;24.92;14.65;;;;;;;;;;4941719;29;20024;-88
2022/01/23 10:49:46;;;;;;;22.58;13.20;;;;;;;;;;4944767;29;20064;-85
2022/01/23 10:52:32;;;;;;;29.08;15.75;;;;;;;;;;4950364;29;20020;-84
2022/01/23 10:54:58;;;;;;;29.13;14.25;;;;;;;;;;4940896;29;20045;-83
2022/01/23 10:57:32;;;;;;;29.48;15.40;;;;;;;;;;4941679;29;20039;-82
2022/01/23 11:00:04;;;;;;;25.08;14.45;;;;;;;;;;4941943;29;20032;-83
2022/01/23 11:02:32;;;;;;;19.55;9.88;;;;;;;;;;4924740;29;20059;-82
2022/01/23 11:05:04;;;;;;;21.05;10.95;;;;;;;;;;4943666;29;20028;-83
2022/01/23 11:07:31;;;;;;;15.73;9.40;;;;;;;;;;4942509;29;20028;-82
2022/01/23 11:10:10;;;;;;;18.02;10.30;;;;;;;;;;4937743;29;20036;-83
2022/01/23 11:18:16;;;;;;;15.68;8.98;;;;;;;;;;4951103;29;20095;-85
2022/01/23 11:21:31;;;;;;;14.27;8.80;;;;;;;;;;4946443;29;20114;-80
2022/01/23 11:23:38;;;;;;;16.75;9.27;;;;;;;;;;4943482;29;20036;-81
2022/01/23 11:26:03;;;;;;;13.93;8.05;;;;;;;;;;4949084;29;20075;-85
2022/01/23 11:28:37;;;;;;;16.17;9.82;;;;;;;;;;4937809;29;20098;-82
2022/01/23 11:31:04;;;;;;;15.85;8.60;;;;;;;;;;4941779;29;20031;-82
2022/01/23 11:33:30;;;;;;;14.30;8.60;;;;;;;;;;4940310;29;20410;-83
2022/01/23 11:35:56;;;;;;;16.00;9.18;;;;;;;;;;4942269;29;20034;-82
2022/01/23 11:38:23;;;;;;;17.48;9.23;;;;;;;;;;4935686;29;20043;-82
2022/01/23 11:54:42;;;;;;;12.13;6.93;;;;;;;;;;4935741;29;20059;-82
2022/01/23 11:57:37;;;;;;;12.68;7.88;;;;;;;;;;4940859;29;20031;-82
2022/01/23 12:00:25;;;;;;;16.58;9.00;;;;;;;;;;4939393;29;20402;-82
2022/01/23 12:03:27;;;;;;;13.13;7.80;;;;;;;;;;4934066;29;20066;-82
2022/01/23 12:06:11;;;;;;;13.38;8.43;;;;;;;;;;4925041;29;20041;-82
2022/01/23 12:08:37;;;;;;;12.95;7.93;;;;;;;;;;4934526;29;20038;-83
2022/01/23 12:11:48;;;;;;;8.15;4.63;;;;;;;;;;4943760;29;20024;-81
2022/01/23 12:16:59;;;;;;;8.32;4.97;;;;;;;;;;4937952;29;20075;-82
2022/01/23 12:19:27;;;;;;;12.68;7.75;;;;;;;;;;4937388;29;20023;-85
2022/01/23 12:21:55;;;;;;;14.23;8.70;;;;;;;;;;4939199;29;20036;-84
2022/01/23 12:24:23;;;;;;;13.57;7.20;;;;;;;;;;4940035;29;20035;-83
2022/01/23 12:26:50;;;;;;;14.13;7.60;;;;;;;;;;4937260;29;20027;-83
2022/01/23 12:29:27;;;;;;;10.65;7.00;;;;;;;;;;4938147;29;20032;-81
2022/01/23 12:32:18;;;;;;;12.57;7.53;;;;;;;;;;4933135;29;20039;-83
2022/01/23 12:34:51;;;;;;;10.20;6.35;;;;;;;;;;4939646;29;20389;-83
2022/01/23 12:37:17;;;;;;;12.18;7.30;;;;;;;;;;4940243;29;20020;-83
2022/01/23 12:39:43;;;;;;;11.63;7.20;;;;;;;;;;4938447;29;20035;-82
2022/01/23 12:42:09;;;;;;;11.93;7.63;;;;;;;;;;4920760;29;20578;-83
2022/01/23 12:44:37;;;;;;;9.77;6.18;;;;;;;;;;4940692;29;20036;-83
2022/01/23 12:47:16;;;;;;;15.85;7.43;;;;;;;;;;4940086;29;20060;-84
2022/01/23 12:49:50;;;;;;;11.68;7.60;;;;;;;;;;4939503;29;20035;-83
2022/01/23 12:52:21;;;;;;;10.95;6.03;;;;;;;;;;4939660;29;20027;-84
2022/01/23 12:54:46;;;;;;;4.32;2.85;;;;;;;;;;4938582;29;20034;-84
2022/01/23 12:57:33;;;;;;;8.25;4.20;;;;;;;;;;4941500;29;20035;-84
2022/01/23 13:00:02;;;;;;;8.95;5.53;;;;;;;;;;4941464;29;20032;-83
2022/01/23 13:02:34;;;;;;;7.63;4.47;;;;;;;;;;4943948;29;20383;-84
2022/01/23 13:05:00;;;;;;;7.45;4.75;;;;;;;;;;4943394;29;20019;-83
2022/01/23 13:08:18;;;;;;;11.90;5.57;;;;;;;;;;4942378;29;20035;-84
2022/01/23 13:10:29;;;;;;;9.45;6.03;;;;;;;;;;4933316;29;20055;-84
2022/01/23 13:13:06;;;;;;;9.13;4.47;;;;;;;;;;4943243;29;20023;-83
2022/01/23 13:18:17;;;;;;;2.88;2.00;;;;;;;;;;4952390;29;20586;-82
2022/01/23 13:32:08;;;;;;;3.72;2.75;;;;;;;;;;4942493;29;20115;-83
2022/01/23 13:34:47;;;;;;;5.25;3.03;;;;;;;;;;4944014;29;20087;-83
2022/01/23 13:37:19;;;;;;;4.53;2.88;;;;;;;;;;4927013;29;20115;-81
2022/01/23 13:39:48;;;;;;;4.15;2.78;;;;;;;;;;4941952;29;20394;-81
2022/01/23 13:51:57;;;;;;;6.85;4.10;;;;;;;;;;4947028;29;20035;-82
2022/01/23 14:02:34;;;;;;;6.05;3.47;;;;;;;;;;4945495;29;20038;-83
2022/01/23 14:05:02;;;;;;;5.25;3.60;;;;;;;;;;4945944;29;20103;-83
2022/01/23 14:07:29;;;;;;;5.75;3.13;;;;;;;;;;4943382;29;20402;-83
2022/01/23 14:09:57;;;;;;;3.67;2.42;;;;;;;;;;4945373;29;20043;-84
2022/01/23 14:12:24;;;;;;;4.85;2.70;;;;;;;;;;4945197;29;20023;-83
2022/01/23 14:14:51;;;;;;;4.28;2.47;;;;;;;;;;4945080;29;20035;-84
2022/01/23 14:17:16;;;;;;;4.80;2.90;;;;;;;;;;4946050;29;20036;-83
2022/01/23 14:19:56;;;;;;;5.15;3.25;;;;;;;;;;4946931;29;20035;-83
2022/01/23 14:22:34;;;;;;;5.72;3.63;;;;;;;;;;4940706;29;20028;-83
2022/01/23 14:25:20;;;;;;;7.47;4.20;;;;;;;;;;4943053;29;20046;-83
2022/01/23 14:28:21;;;;;;;5.72;3.60;;;;;;;;;;4943212;29;20679;-81
2022/01/23 14:30:50;;;;;;;5.60;3.42;;;;;;;;;;4942324;29;20075;-83
2022/01/23 14:33:20;;;;;;;6.40;3.42;;;;;;;;;;4921999;29;20135;-82
2022/01/23 14:35:45;;;;;;;7.57;4.22;;;;;;;;;;4925131;29;20024;-83
2022/01/23 14:38:17;;;;;;;5.85;3.50;;;;;;;;;;4927526;29;20039;-83
2022/01/23 14:40:58;;;;;;;7.90;4.05;;;;;;;;;;4944824;29;20132;-82
2022/01/23 14:43:39;;;;;;;6.05;3.63;;;;;;;;;;4934525;29;20384;-82
2022/01/23 14:46:08;;;;;;;5.00;2.92;;;;;;;;;;4947191;29;20201;-82
2022/01/23 14:48:44;;;;;;;3.70;2.50;;;;;;;;;;4940811;29;20091;-82
2022/01/23 14:51:10;;;;;;;3.58;2.78;;;;;;;;;;4940036;29;20028;-83
2022/01/23 14:53:39;;;;;;;5.00;2.78;;;;;;;;;;4945202;29;20058;-83
2022/01/23 14:56:07;;;;;;;3.50;2.45;;;;;;;;;;4948402;29;20023;-82
2022/01/23 14:58:34;;;;;;;5.13;2.75;;;;;;;;;;4940054;29;20109;-80
2022/01/23 15:01:00;;;;;;;3.67;2.53;;;;;;;;;;4941286;29;20035;-83
2022/01/23 15:03:28;;;;;;;4.28;3.25;;;;;;;;;;4945214;29;20027;-83
2022/01/23 15:05:54;;;;;;;8.95;2.72;;;;;;;;;;4944687;29;20501;-84
2022/01/23 15:08:22;;;;;;;5.15;2.95;;;;;;;;;;4945084;29;20031;-81
2022/01/23 15:10:50;;;;;;;5.95;3.30;;;;;;;;;;4938829;29;20603;-82
2022/01/23 15:13:16;;;;;;;4.63;2.97;;;;;;;;;;4943009;29;20055;-82
2022/01/23 15:15:41;;;;;;;5.05;3.50;;;;;;;;;;4945314;29;20024;-84
2022/01/23 15:18:07;;;;;;;6.57;4.13;;;;;;;;;;4943288;29;20038;-83
2022/01/23 15:20:35;;;;;;;4.22;2.85;;;;;;;;;;4945642;29;20051;-81
2022/01/23 15:23:02;;;;;;;4.22;2.80;;;;;;;;;;4945273;29;20023;-82
2022/01/23 15:25:28;;;;;;;2.78;2.17;;;;;;;;;;4936677;29;20020;-83
2022/01/23 15:27:54;;;;;;;4.97;2.85;;;;;;;;;;4941528;29;20087;-84
2022/01/23 15:30:22;;;;;;;4.68;3.17;;;;;;;;;;4949754;29;20026;-82
2022/01/23 15:32:49;;;;;;;3.28;2.38;;;;;;;;;;4944423;29;20039;-83
2022/01/23 15:35:14;;;;;;;3.67;2.65;;;;;;;;;;4944911;29;20024;-83
2022/01/23 15:37:41;;;;;;;3.78;2.65;;;;;;;;;;4943449;29;20455;-81
2022/01/23 15:40:10;;;;;;;4.30;2.67;;;;;;;;;;4944438;29;20525;-81
2022/01/23 15:42:35;;;;;;;5.07;3.10;;;;;;;;;;4925945;29;20034;-82
2022/01/23 15:45:01;;;;;;;4.00;2.60;;;;;;;;;;4945481;29;20023;-82
2022/01/23 15:47:26;;;;;;;4.80;2.20;;;;;;;;;;4944157;29;20024;-81
2022/01/23 15:49:51;;;;;;;4.50;2.40;;;;;;;;;;4943931;29;20563;-82
2022/01/23 15:52:17;;;;;;;3.90;2.47;;;;;;;;;;4945404;29;20053;-81
2022/01/23 15:54:42;;;;;;;3.38;2.58;;;;;;;;;;4945057;29;20056;-82
2022/01/23 15:57:08;;;;;;;3.42;2.55;;;;;;;;;;4944856;29;20028;-83
2022/01/23 15:59:35;;;;;;;3.58;2.30;;;;;;;;;;4942122;29;20032;-83
2022/01/23 16:02:04;;;;;;;3.53;2.45;;;;;;;;;;4943421;29;20039;-83
2022/01/23 16:04:32;;;;;;;3.88;2.38;;;;;;;;;;4943962;29;20075;-82
2022/01/23 16:06:58;;;;;;;3.78;2.58;;;;;;;;;;4941712;29;20494;-83
2022/01/23 16:09:24;;;;;;;3.85;2.70;;;;;;;;;;4942888;29;20042;-81
2022/01/23 16:11:49;;;;;;;3.85;2.50;;;;;;;;;;4942822;29;20063;-82
2022/01/23 16:14:17;;;;;;;3.58;2.15;;;;;;;;;;4944580;29;20038;-84
2022/01/23 16:16:42;;;;;;;2.85;2.25;;;;;;;;;;4942902;29;20028;-83
2022/01/23 16:19:08;;;;;;;1.90;1.60;;;;;;;;;;4926173;29;20031;-81
2022/01/23 16:21:33;;;;;;;2.30;2.10;;;;;;;;;;4943845;29;20023;-81
2022/01/23 16:23:59;;;;;;;2.78;2.15;;;;;;;;;;4941862;29;20119;-82
2022/01/23 16:26:25;;;;;;;3.30;2.58;;;;;;;;;;4944057;29;20020;-81
2022/01/23 16:28:51;;;;;;;2.42;2.00;;;;;;;;;;4943840;29;20051;-81
2022/01/23 16:31:16;;;;;;;3.00;2.15;;;;;;;;;;4941639;29;20515;-81
2022/01/23 16:33:42;;;;;;;2.30;1.92;;;;;;;;;;4927999;29;20030;-82
2022/01/23 16:36:08;;;;;;;3.22;2.28;;;;;;;;;;4945666;29;20031;-81
2022/01/23 16:38:34;;;;;;;2.47;2.15;;;;;;;;;;4944666;29;20088;-80
2022/01/23 16:41:00;;;;;;;3.72;2.40;;;;;;;;;;4944667;29;20490;-82
2022/01/23 16:43:27;;;;;;;4.40;2.22;;;;;;;;;;4945144;29;20046;-83
2022/01/23 16:45:54;;;;;;;3.10;2.38;;;;;;;;;;4943149;29;20024;-81
2022/01/23 16:48:21;;;;;;;2.85;2.15;;;;;;;;;;4944123;29;20048;-84
2022/01/23 16:50:46;;;;;;;3.05;2.22;;;;;;;;;;4944923;29;20027;-83
2022/01/23 16:53:12;;;;;;;3.15;2.13;;;;;;;;;;4944690;29;20107;-83
2022/01/23 16:55:37;;;;;;;3.60;2.22;;;;;;;;;;4945812;29;20594;-83
2022/01/23 16:58:03;;;;;;;3.70;2.35;;;;;;;;;;4925793;29;20023;-83
2022/01/23 17:00:29;;;;;;;2.92;2.20;;;;;;;;;;4945590;29;20087;-81
2022/01/23 17:02:55;;;;;;;4.20;2.30;;;;;;;;;;4944002;29;20030;-83
2022/01/23 17:05:21;;;;;;;3.42;2.40;;;;;;;;;;4944647;29;20053;-82
2022/01/23 17:07:47;;;;;;;4.28;2.70;;;;;;;;;;4940013;29;20039;-81
2022/01/23 17:10:12;;;;;;;4.10;2.65;;;;;;;;;;4945689;29;20395;-84
2022/01/23 17:12:38;;;;;;;2.88;2.28;;;;;;;;;;4942608;29;20052;-81
2022/01/23 17:15:04;;;;;;;3.20;2.42;;;;;;;;;;4945381;29;20054;-82
2022/01/23 17:17:29;;;;;;;2.95;2.25;;;;;;;;;;4944669;29;20035;-82
2022/01/23 17:19:55;;;;;;;3.70;2.35;;;;;;;;;;4944656;29;20035;-83
2022/01/23 17:22:20;;;;;;;5.05;2.38;;;;;;;;;;4944639;29;20028;-82
2022/01/23 17:24:46;;;;;;;3.35;2.15;;;;;;;;;;4944476;29;20368;-82
2022/01/23 17:27:11;;;;;;;3.03;2.30;;;;;;;;;;4946733;29;20091;-82
2022/01/23 17:29:37;;;;;;;3.95;2.40;;;;;;;;;;4944444;29;20030;-82
2022/01/23 17:32:04;;;;;;;4.65;2.47;;;;;;;;;;4947716;29;20088;-82
2022/01/23 17:34:29;;;;;;;4.80;2.92;;;;;;;;;;4946324;29;20027;-81
2022/01/23 17:36:55;;;;;;;4.28;2.70;;;;;;;;;;4947602;29;20112;-82
2022/01/23 17:39:20;;;;;;;3.95;2.65;;;;;;;;;;4946304;29;20019;-81
2022/01/23 17:41:46;;;;;;;4.50;2.92;;;;;;;;;;4947632;29;20511;-80
2022/01/23 17:44:11;;;;;;;5.05;2.45;;;;;;;;;;4947606;29;20708;-82
2022/01/23 17:46:38;;;;;;;3.85;2.25;;;;;;;;;;4948013;29;20026;-84
2022/01/23 17:49:06;;;;;;;4.05;2.63;;;;;;;;;;4945764;29;20035;-84
2022/01/23 17:51:33;;;;;;;4.80;2.80;;;;;;;;;;4939943;29;20028;-82
2022/01/23 17:53:59;;;;;;;6.05;2.97;;;;;;;;;;4941058;29;20510;-82
2022/01/23 17:56:25;;;;;;;10.98;5.35;;;;;;;;;;4940524;29;20034;-83
2022/01/23 17:58:51;;;;;;;14.60;7.47;;;;;;;;;;4938124;29;20043;-82
2022/01/23 18:01:16;;;;;;;7.97;4.32;;;;;;;;;;4925701;29;20035;-81
2022/01/23 18:03:43;;;;;;;4.38;2.78;;;;;;;;;;4938886;29;20028;-82
2022/01/23 18:06:23;;;;;;;4.97;3.17;;;;;;;;;;4937119;29;20024;-82
2022/01/23 18:08:50;;;;;;;4.45;2.95;;;;;;;;;;4936934;29;20028;-83
2022/01/23 18:11:17;;;;;;;9.63;5.70;;;;;;;;;;4938937;29;20230;-82
2022/01/23 18:13:54;;;;;;;6.78;4.05;;;;;;;;;;4938442;29;20510;-84
2022/01/23 18:16:20;;;;;;;7.72;4.22;;;;;;;;;;4936490;29;20047;-82
2022/01/23 18:18:45;;;;;;;14.55;7.47;;;;;;;;;;4937128;29;20028;-83